.
WxDataArchive / Data Records for 2014-07-31
2014-07-30 July 2014 2014-08-01

Data Records for Thursday, 31 July 2014

Time	Temp	Chill	HIndex	Humid	Dewpt	 Wind 	HiWind	WindDir	Rain 	Barom
-----	----	-----	------	-----	-----	------	------	-------	-----	-----
00:00	64.7	64.7	64.7	75	56.6	0	0	---	0.00	29.993 
00:05	64.5	64.5	64.5	76	56.8	0	0	---	0.00	29.993 
00:10	64.5	64.5	64.5	76	56.8	0	0	---	0.00	29.993 
00:15	64.3	64.3	64.3	76	56.6	0	0	---	0.00	29.993 
00:20	64.3	64.3	64.3	77	56.9	0	0	---	0.00	29.993 
00:25	64.3	64.3	64.3	77	56.9	0	0	---	0.00	29.993 
00:30	64.3	64.3	64.3	76	56.6	0	0	---	0.00	29.995 
00:35	64.3	64.3	64.3	77	56.9	0	0	---	0.00	29.995 
00:40	64.3	64.3	64.3	77	56.9	0	0	---	0.00	29.995 
00:45	64.2	64.2	64.2	77	56.8	0	0	---	0.00	30.000 
00:50	64.3	64.3	64.3	76	56.6	0	0	---	0.00	30.000 
00:55	64.7	64.7	64.7	75	56.6	0	0	---	0.00	30.000 
01:00	64.8	64.8	64.8	74	56.3	0	1	292	0.00	30.001 
01:05	65.0	65.0	65.0	73	56.1	0	0	---	0.00	30.001 
01:10	65.2	65.2	65.2	73	56.3	0	1	292	0.00	30.001 
01:15	65.2	65.2	65.2	72	55.9	0	1	292	0.00	29.996 
01:20	65.0	65.0	65.0	73	56.1	0	1	292	0.00	29.996 
01:25	64.8	64.8	64.8	73	55.9	0	1	292	0.00	29.996 
01:30	64.5	64.5	64.5	73	55.6	0	0	---	0.00	29.996 
01:35	64.2	64.2	64.2	74	55.7	0	0	---	0.00	29.996 
01:40	64.0	64.0	64.0	75	55.9	0	0	---	0.00	29.996 
01:45	64.0	64.0	64.0	75	55.9	0	0	---	0.00	29.998 
01:50	63.9	63.9	63.9	76	56.2	0	0	---	0.00	29.998 
01:55	63.7	63.7	63.7	76	56.0	0	0	---	0.00	29.998 
02:00	63.5	63.5	63.5	76	55.8	0	0	---	0.00	29.996 
02:05	63.5	63.5	63.5	77	56.2	0	0	---	0.00	29.996 
02:10	63.4	63.4	63.4	77	56.1	0	0	---	0.00	29.996 
02:15	63.2	63.2	63.2	77	55.9	0	0	---	0.00	29.998 
02:20	63.2	63.2	63.2	77	55.9	0	0	---	0.00	29.998 
02:25	62.9	62.9	62.9	78	55.9	0	0	---	0.00	29.998 
02:30	62.7	62.7	62.7	78	55.7	0	0	---	0.00	29.997 
02:35	62.6	62.6	62.6	79	56.0	0	0	---	0.00	29.997 
02:40	62.4	62.4	62.4	79	55.8	0	0	---	0.00	29.997 
02:45	62.3	62.3	62.3	80	56.0	0	0	---	0.00	29.999 
02:50	62.1	62.1	62.1	80	55.9	0	0	---	0.00	29.999 
02:55	62.0	62.0	62.0	81	56.1	0	0	---	0.00	29.999 
03:00	61.6	61.6	61.6	81	55.7	0	0	---	0.00	29.997 
03:05	61.3	61.3	61.3	81	55.4	0	0	---	0.00	29.997 
03:10	61.2	61.2	61.2	82	55.7	0	0	---	0.00	29.997 
03:15	60.9	60.9	60.9	82	55.4	0	0	---	0.00	29.995 
03:20	60.7	60.7	60.7	83	55.5	0	0	---	0.00	29.995 
03:25	60.5	60.5	60.5	84	55.6	0	0	---	0.00	29.995 
03:30	60.4	60.4	60.4	84	55.5	0	0	---	0.00	29.997 
03:35	60.2	60.2	60.2	84	55.3	0	0	---	0.00	29.997 
03:40	60.2	60.2	60.2	85	55.7	0	0	---	0.00	29.997 
03:45	60.2	60.2	60.2	85	55.7	0	0	---	0.00	29.996 
03:50	60.2	60.2	60.2	85	55.7	0	0	---	0.00	29.996 
03:55	60.2	60.2	60.2	86	56.0	0	0	---	0.00	29.996 
04:00	60.1	60.1	60.1	86	55.9	0	0	---	0.00	29.995 
04:05	60.1	60.1	60.1	86	55.9	0	0	---	0.00	29.995 
04:10	59.9	59.9	59.9	86	55.7	0	0	---	0.00	29.995 
04:15	59.8	59.8	59.8	86	55.6	0	0	---	0.00	29.989 
04:20	59.6	59.6	59.6	86	55.4	0	0	---	0.00	29.989 
04:25	59.3	59.3	59.3	86	55.1	0	0	---	0.00	29.989 
04:30	59.2	59.2	59.2	87	55.3	0	0	---	0.00	29.991 
04:35	58.9	58.9	58.9	87	55.0	0	0	---	0.00	29.991 
04:40	58.7	58.7	58.7	88	55.2	0	0	---	0.00	29.991 
04:45	58.4	58.4	58.4	88	54.9	0	0	---	0.00	29.992 
04:50	58.3	58.3	58.3	88	54.8	0	0	---	0.00	29.992 
04:55	58.1	58.1	58.1	89	54.9	0	0	---	0.00	29.992 
05:00	58.0	58.0	58.0	89	54.8	0	0	---	0.00	29.992 
05:05	57.8	57.8	57.8	89	54.6	0	0	---	0.00	29.992 
05:10	57.6	57.6	57.6	89	54.4	0	0	---	0.00	29.992 
05:15	57.5	57.5	57.5	89	54.3	0	0	---	0.00	29.995 
05:20	57.3	57.3	57.3	90	54.4	0	0	---	0.00	29.995 
05:25	57.2	57.2	57.2	90	54.3	0	0	---	0.00	29.995 
05:30	57.0	57.0	57.0	90	54.1	0	0	---	0.00	30.000 
05:35	56.9	56.9	56.9	90	54.0	0	0	---	0.00	30.000 
05:40	56.7	56.7	56.7	90	53.8	0	0	---	0.00	30.000 
05:45	56.7	56.7	56.7	91	54.1	0	0	---	0.00	30.005 
05:50	56.6	56.6	56.6	91	54.0	0	0	---	0.00	30.005 
05:55	56.5	56.5	56.5	91	53.9	0	0	---	0.00	30.005 
06:00	56.3	56.3	56.3	91	53.7	0	0	---	0.00	30.009 
06:05	56.2	56.2	56.2	91	53.6	0	0	---	0.00	30.009 
06:10	56.0	56.0	56.0	91	53.4	0	0	---	0.00	30.009 
06:15	55.9	55.9	55.9	91	53.3	0	0	---	0.00	30.010 
06:20	55.9	55.9	55.9	92	53.6	0	0	---	0.00	30.010 
06:25	55.7	55.7	55.7	92	53.4	0	0	---	0.00	30.010 
06:30	55.6	55.6	55.6	92	53.3	0	0	---	0.00	30.014 
06:35	55.4	55.4	55.4	92	53.1	0	0	---	0.00	30.014 
06:40	55.3	55.3	55.3	92	53.0	0	0	---	0.00	30.014 
06:45	55.3	55.3	55.3	92	53.0	0	0	---	0.00	30.017 
06:50	55.3	55.3	55.3	92	53.0	0	0	---	0.00	30.017 
06:55	55.1	55.1	55.1	92	52.8	0	0	---	0.00	30.017 
07:00	55.1	55.1	55.1	92	52.8	0	0	---	0.00	30.021 
07:05	55.1	55.1	55.1	92	52.8	0	0	---	0.00	30.021 
07:10	55.1	55.1	55.1	93	53.1	0	0	---	0.00	30.021 
07:15	55.3	55.3	55.3	93	53.3	0	0	---	0.00	30.024 
07:20	55.3	55.3	55.3	93	53.3	0	0	---	0.00	30.024 
07:25	55.4	55.4	55.4	93	53.4	0	1	292	0.00	30.024 
07:30	55.7	55.7	55.7	93	53.7	0	0	---	0.00	30.025 
07:35	55.9	55.9	55.9	93	53.9	0	0	---	0.00	30.025 
07:40	56.2	56.2	56.2	93	54.2	0	0	---	0.00	30.025 
07:45	56.5	56.5	56.5	94	54.8	0	0	---	0.00	30.026 
07:50	57.0	57.0	57.0	94	55.3	0	0	---	0.00	30.026 
07:55	57.6	57.6	57.6	94	55.9	0	0	---	0.00	30.026 
08:00	58.3	58.3	58.3	94	56.6	0	0	---	0.00	30.025 
08:05	59.2	59.2	59.2	95	57.8	0	0	---	0.00	30.025 
08:10	59.8	59.8	59.8	94	58.1	0	0	---	0.00	30.025 
08:15	60.5	60.5	60.5	94	58.8	0	0	---	0.00	30.026 
08:20	61.2	61.2	61.2	93	59.2	0	0	---	0.00	30.026 
08:25	61.6	61.6	61.6	92	59.2	0	0	---	0.00	30.026 
08:30	62.1	62.1	62.1	92	59.7	0	0	---	0.00	30.024 
08:35	62.4	62.4	62.4	91	59.7	0	0	---	0.00	30.024 
08:40	63.1	63.1	63.1	90	60.1	0	0	---	0.00	30.024 
08:45	63.5	63.5	63.5	88	59.9	0	1	292	0.00	30.028 
08:50	64.0	64.0	64.0	87	60.0	0	0	---	0.00	30.028 
08:55	64.5	64.5	64.5	84	59.6	0	1	292	0.00	30.028 
09:00	65.2	65.2	65.2	81	59.2	0	1	292	0.00	30.026 
09:05	65.8	65.8	65.8	79	59.1	0	1	292	0.00	30.026 
09:10	66.4	66.4	66.4	78	59.3	0	1	292	0.00	30.026 
09:15	66.9	66.9	66.9	76	59.1	0	1	292	0.00	30.024 
09:20	67.6	67.6	67.6	74	59.0	0	1	292	0.00	30.024 
09:25	68.4	68.4	68.4	73	59.4	0	1	292	0.00	30.024 
09:30	69.3	69.3	69.3	69	58.7	0	1	292	0.00	30.023 
09:35	69.8	69.8	69.8	69	59.2	0	1	292	0.00	30.023 
09:40	70.1	70.1	70.1	66	58.2	0	1	292	0.00	30.023 
09:45	70.4	70.4	70.4	67	58.9	0	1	292	0.00	30.027 
09:50	70.8	70.8	70.8	67	59.3	0	1	292	0.00	30.027 
09:55	71.3	71.3	71.3	65	58.9	0	1	292	0.00	30.027 
10:00	71.8	71.8	71.8	64	59.0	0	1	292	0.00	30.026 
10:05	72.1	72.1	72.1	62	58.3	0	1	292	0.00	30.026 
10:10	72.8	72.8	72.8	61	58.6	0	1	292	0.00	30.026 
10:15	73.3	73.3	73.3	58	57.6	0	1	292	0.00	30.027 
10:20	73.5	73.5	73.5	59	58.3	0	1	292	0.00	30.027 
10:25	73.2	73.2	73.2	57	57.0	1	3	292	0.00	30.027 
10:30	73.2	73.2	73.2	58	57.5	0	1	292	0.00	30.027 
10:35	73.9	73.9	73.9	55	56.7	1	5	292	0.00	30.027 
10:40	74.6	74.6	74.6	54	56.8	0	2	90	0.00	30.027 
10:45	74.6	74.6	74.6	54	56.8	0	2	90	0.00	30.027 
10:50	74.6	74.6	74.6	57	58.3	0	2	90	0.00	30.027 
10:55	74.9	74.9	74.9	55	57.6	0	1	90	0.00	30.027 
11:00	74.9	74.9	74.9	53	56.6	1	4	90	0.00	30.030 
11:05	74.9	74.9	74.9	54	57.1	0	3	338	0.00	30.030 
11:10	75.3	75.3	77.7	56	58.5	0	3	292	0.00	30.030 
11:15	76.0	76.0	78.1	53	57.6	0	2	292	0.00	30.033 
11:20	76.7	76.7	78.5	54	58.8	0	2	292	0.00	30.033 
11:25	77.2	77.2	78.7	51	57.6	1	3	292	0.00	30.033 
11:30	76.8	76.8	78.5	51	57.3	1	2	292	0.00	30.031 
11:35	77.0	77.0	78.6	50	56.9	1	4	292	0.00	30.031 
11:40	76.7	76.7	78.4	49	56.1	1	4	292	0.00	30.031 
11:45	76.3	76.3	78.2	51	56.8	1	3	292	0.00	30.033 
11:50	76.7	76.7	78.5	52	57.7	0	2	292	0.00	30.033 
11:55	76.7	76.7	78.4	48	55.5	1	3	292	0.00	30.033 
12:00	76.7	76.7	78.5	52	57.7	1	3	292	0.00	30.028 
12:05	77.2	77.2	78.7	48	56.0	0	2	292	0.00	30.028 
12:10	77.4	77.4	78.8	50	57.3	1	4	315	0.00	30.028 
12:15	77.6	77.6	78.8	47	55.8	1	3	315	0.00	30.029 
12:20	77.6	77.6	78.9	48	56.3	1	3	315	0.00	30.029 
12:25	77.7	77.7	78.9	46	55.2	1	5	315	0.00	30.029 
12:30	78.1	78.1	79.0	45	55.0	1	3	292	0.00	30.028 
12:35	78.1	78.1	79.0	44	54.4	2	4	292	0.00	30.028 
12:40	78.3	78.3	79.2	45	55.2	2	4	292	0.00	30.028 
12:45	78.1	78.1	79.0	45	55.0	1	4	315	0.00	30.026 
12:50	78.5	78.5	79.4	46	56.0	0	2	315	0.00	30.026 
12:55	79.0	79.0	79.7	46	56.4	1	3	315	0.00	30.026 
13:00	78.8	78.8	79.5	45	55.6	2	4	315	0.00	30.022 
13:05	79.0	79.0	79.6	45	55.8	1	5	270	0.00	30.022 
13:10	79.0	79.0	79.6	44	55.2	1	9	338	0.00	30.022 
13:15	79.8	79.8	80.1	44	55.9	0	2	338	0.00	30.020 
13:20	79.9	79.9	80.2	44	56.0	2	5	292	0.00	30.020 
13:25	79.4	79.4	79.9	45	56.2	2	6	292	0.00	30.020 
13:30	79.4	79.4	80.1	47	57.4	1	5	270	0.00	30.017 
13:35	79.9	79.9	80.7	50	59.6	0	2	270	0.00	30.017 
13:40	79.9	79.9	80.1	43	55.4	2	6	270	0.00	30.017 
13:45	79.9	79.9	80.1	43	55.4	2	6	270	0.00	30.015 
13:50	79.6	79.6	79.9	43	55.1	2	7	315	0.00	30.015 
13:55	80.1	80.1	80.4	45	56.8	1	3	270	0.00	30.015 
14:00	80.5	80.5	80.6	44	56.6	1	3	270	0.00	30.013 
14:05	80.5	80.5	80.6	43	55.9	2	5	270	0.00	30.013 
14:10	80.3	80.3	80.4	43	55.7	1	4	270	0.00	30.013 
14:15	80.3	80.3	80.2	41	54.4	2	4	270	0.00	30.015 
14:20	80.3	80.3	80.3	42	55.1	1	6	270	0.00	30.015 
14:25	80.5	80.5	80.7	45	57.2	1	4	270	0.00	30.015 
14:30	80.9	80.9	80.9	43	56.3	2	6	292	0.00	30.013 
14:35	80.9	80.9	80.9	43	56.3	1	5	292	0.00	30.013 
14:40	80.9	80.9	80.9	43	56.3	1	5	292	0.00	30.013 
14:45	80.5	80.5	80.6	43	55.9	3	5	270	0.00	30.013 
14:50	80.7	80.7	80.9	45	57.4	1	3	270	0.00	30.013 
14:55	81.1	81.1	81.1	44	57.1	1	5	270	0.00	30.013 
15:00	81.1	81.1	81.0	43	56.5	3	6	292	0.00	30.014 
15:05	80.3	80.3	80.5	44	56.4	2	6	270	0.00	30.014 
15:10	79.9	79.9	80.3	45	56.6	2	4	292	0.00	30.014 
15:15	80.1	80.1	80.3	44	56.2	2	4	292	0.00	30.013 
15:20	79.8	79.8	80.1	44	55.9	1	4	315	0.00	30.013 
15:25	79.8	79.8	80.3	46	57.2	0	3	315	0.00	30.013 
15:30	80.1	80.1	80.6	47	58.0	2	5	292	0.00	30.014 
15:35	80.3	80.3	80.6	45	57.0	2	5	292	0.00	30.014 
15:40	79.9	79.9	80.4	46	57.2	1	3	292	0.00	30.014 
15:45	80.1	80.1	80.5	46	57.4	1	4	292	0.00	30.008 
15:50	80.1	80.1	80.4	45	56.8	1	5	315	0.00	30.008 
15:55	79.6	79.6	80.0	45	56.4	1	4	315	0.00	30.008 
16:00	79.2	79.2	79.8	46	56.6	1	4	315	0.00	30.017 
16:05	79.0	79.0	79.8	47	57.0	2	4	292	0.00	30.017 
16:10	79.2	79.2	79.8	46	56.6	2	5	292	0.00	30.017 
16:15	79.4	79.4	80.1	47	57.4	1	3	270	0.00	30.016 
16:20	79.6	79.6	80.4	49	58.7	1	3	270	0.00	30.016 
16:25	80.1	80.1	80.6	47	58.0	2	5	270	0.00	30.016 
16:30	79.9	79.9	80.4	47	57.8	1	4	270	0.00	30.010 
16:35	79.8	79.8	80.3	46	57.2	1	3	270	0.00	30.010 
16:40	80.3	80.3	80.6	45	57.0	0	3	292	0.00	30.010 
16:45	80.7	80.7	81.0	46	58.0	1	4	292	0.00	30.005 
16:50	80.9	80.9	81.3	47	58.8	1	4	270	0.00	30.005 
16:55	81.4	81.4	81.4	44	57.4	1	3	270	0.00	30.005 
17:00	81.4	81.4	81.2	42	56.1	2	4	270	0.00	30.002 
17:05	81.2	81.2	81.0	42	55.9	3	5	270	0.00	30.002 
17:10	80.7	80.7	80.7	43	56.1	1	4	270	0.00	30.002 
17:15	80.5	80.5	80.7	45	57.2	0	2	270	0.00	30.004 
17:20	81.2	81.2	81.2	44	57.2	0	2	270	0.00	30.004 
17:25	81.4	81.4	81.4	44	57.4	0	2	270	0.00	30.004 
17:30	81.2	81.2	81.2	44	57.2	0	1	270	0.00	30.005 
17:35	81.1	81.1	81.0	43	56.5	0	2	270	0.00	30.005 
17:40	81.2	81.2	81.0	42	55.9	2	5	315	0.00	30.005 
17:45	81.4	81.4	81.2	42	56.1	1	2	315	0.00	30.006 
17:50	81.4	81.4	81.2	42	56.1	1	4	315	0.00	30.006 
17:55	81.1	81.1	80.9	42	55.8	1	5	270	0.00	30.006 
18:00	80.5	80.5	80.6	43	55.9	1	2	270	0.00	30.006 
18:05	80.5	80.5	80.6	44	56.6	0	3	270	0.00	30.006 
18:10	80.9	80.9	81.0	44	56.9	1	3	270	0.00	30.006 
18:15	80.9	80.9	81.0	44	56.9	1	4	270	0.00	30.005 
18:20	81.1	81.1	81.3	45	57.7	0	1	270	0.00	30.005 
18:25	81.1	81.1	81.1	44	57.1	1	3	270	0.00	30.005 
18:30	80.9	80.9	81.0	44	56.9	1	2	270	0.00	30.004 
18:35	80.3	80.3	80.5	44	56.4	1	2	270	0.00	30.004 
18:40	79.9	79.9	80.4	46	57.2	0	2	270	0.00	30.004 
18:45	79.6	79.6	80.2	47	57.6	0	3	270	0.00	30.006 
18:50	79.2	79.2	80.0	48	57.8	0	2	270	0.00	30.006 
18:55	79.0	79.0	79.8	47	57.0	1	3	270	0.00	30.006 
19:00	78.8	78.8	79.7	48	57.4	0	1	270	0.00	30.005 
19:05	78.8	78.8	79.6	47	56.8	1	3	270	0.00	30.005 
19:10	78.6	78.6	79.6	49	57.8	1	2	270	0.00	30.005 
19:15	78.5	78.5	79.5	49	57.7	0	3	292	0.00	30.006 
19:20	78.5	78.5	79.5	48	57.2	0	2	292	0.00	30.006 
19:25	78.3	78.3	79.3	48	57.0	1	4	292	0.00	30.006 
19:30	78.3	78.3	79.4	50	58.1	0	2	292	0.00	30.007 
19:35	77.7	77.7	79.1	52	58.6	0	1	292	0.00	30.007 
19:40	77.2	77.2	78.8	53	58.7	0	1	292	0.00	30.007 
19:45	76.8	76.8	78.6	54	58.9	0	1	292	0.00	30.009 
19:50	76.5	76.5	78.4	55	59.1	0	0	---	0.00	30.009 
19:55	76.3	76.3	78.3	55	58.9	0	1	292	0.00	30.009 
20:00	75.4	75.4	77.7	56	58.6	2	6	292	0.00	30.013 
20:05	74.6	74.6	74.6	58	58.8	1	4	338	0.00	30.013 
20:10	74.2	74.2	74.2	59	58.9	1	3	338	0.00	30.013 
20:15	73.3	73.3	73.3	65	60.8	2	6	292	0.00	30.015 
20:20	72.1	72.1	72.1	70	61.8	1	4	292	0.00	30.015 
20:25	71.1	71.1	71.1	74	62.4	0	1	292	0.00	30.015 
20:30	70.3	70.3	70.3	76	62.4	0	1	292	0.00	30.023 
20:35	69.9	69.9	69.9	77	62.3	0	1	292	0.00	30.023 
20:40	69.6	69.6	69.6	79	62.8	0	0	---	0.00	30.023 
20:45	69.4	69.4	69.4	80	63.0	0	0	---	0.00	30.021 
20:50	69.3	69.3	69.3	81	63.2	0	0	---	0.00	30.021 
20:55	69.3	69.3	69.3	81	63.2	0	0	---	0.00	30.021 
21:00	69.1	69.1	69.1	82	63.4	0	0	---	0.00	30.021 
21:05	69.1	69.1	69.1	82	63.4	0	0	---	0.00	30.021 
21:10	69.1	69.1	69.1	83	63.7	0	0	---	0.00	30.021 
21:15	68.9	68.9	68.9	83	63.5	0	0	---	0.00	30.016 
21:20	68.9	68.9	68.9	83	63.5	0	0	---	0.00	30.016 
21:25	68.9	68.9	68.9	84	63.9	0	0	---	0.00	30.016 
21:30	68.8	68.8	68.8	84	63.8	0	0	---	0.00	30.018 
21:35	68.8	68.8	68.8	84	63.8	0	0	---	0.00	30.018 
21:40	68.8	68.8	68.8	84	63.8	0	0	---	0.00	30.018 
21:45	68.6	68.6	68.6	84	63.6	0	0	---	0.00	30.021 
21:50	68.4	68.4	68.4	83	63.0	0	0	---	0.00	30.021 
21:55	68.3	68.3	68.3	83	62.9	0	0	---	0.00	30.021 
22:00	68.3	68.3	68.3	83	62.9	0	0	---	0.00	30.029 
22:05	68.1	68.1	68.1	83	62.7	0	0	---	0.00	30.029 
22:10	68.1	68.1	68.1	83	62.7	0	0	---	0.00	30.029 
22:15	67.9	67.9	67.9	83	62.5	0	0	---	0.00	30.031 
22:20	67.9	67.9	67.9	83	62.5	0	0	---	0.00	30.031 
22:25	67.8	67.8	67.8	83	62.4	0	0	---	0.00	30.031 
22:30	67.8	67.8	67.8	83	62.4	0	0	---	0.00	30.031 
22:35	67.6	67.6	67.6	83	62.2	0	0	---	0.00	30.031 
22:40	67.6	67.6	67.6	83	62.2	0	0	---	0.00	30.031 
22:45	67.4	67.4	67.4	83	62.0	0	0	---	0.00	30.032 
22:50	67.4	67.4	67.4	83	62.0	0	0	---	0.00	30.032 
22:55	67.3	67.3	67.3	84	62.3	0	0	---	0.00	30.032 
23:00	67.3	67.3	67.3	84	62.3	0	0	---	0.00	30.031 
23:05	67.3	67.3	67.3	84	62.3	0	0	---	0.00	30.031 
23:10	67.1	67.1	67.1	84	62.1	0	0	---	0.00	30.031 
23:15	67.1	67.1	67.1	84	62.1	0	0	---	0.00	30.030 
23:20	67.1	67.1	67.1	84	62.1	0	0	---	0.00	30.030 
23:25	67.1	67.1	67.1	84	62.1	0	0	---	0.00	30.030 
23:30	66.9	66.9	66.9	84	61.9	0	0	---	0.00	30.031 
23:35	66.9	66.9	66.9	84	61.9	0	0	---	0.00	30.031 
23:40	66.9	66.9	66.9	84	61.9	0	0	---	0.00	30.031 
23:45	66.9	66.9	66.9	84	61.9	0	0	---	0.00	30.031 
23:50	66.8	66.8	66.8	84	61.8	0	0	---	0.00	30.031 
23:55	66.8	66.8	66.8	85	62.1	0	0	---	0.00	30.031 

CoCoRaHS
IN-AL-39
A2 Web Hosting
Creative Commons License
GoDaddy
search engine by freefind advanced

loaded 2018-11-14 04:45:27 • last modified 2010-11-18 10:43:29
Privacy PolicyDisclaimer
• wx.awcolley.com is powered by PmWiki v.2002016 •
• all content (unless otherwise noted) © 2018 A W Colley